PWSweather.com
Personal Weather Stations
Station Observations
ISARDEGN48
BittiIT 08021

BittiIT 08021

Lat: 40.4805, Lon: 9.3887

Elevation: 1804

Station Type: La Crosse WS2355

http://meteobitti.altervista.org

Latest ConditionsUpdated 3:30:01 AM GMT+01:01 Wednesday, Aug 21, 2019
Currently Today's Max Today's Min Today's Average
Temperature 72.3°F22.4°C 75.0°F23.9°C 72.3°F22.4°C 74.1°F23.4°C
Dew Point 59.0°F15.0°C 59.6°F15.3°C 58.1°F14.5°C 58.7°F14.8°C
Winds 7.6 mph WSW12.2 kmh WSW 18.3 mph -29.5 kmh - - 11.1 mph 17.9 kmh
Wind Gusts 9.6 mph15.4 kmh 21.7 mph34.9 kmh - -
Humidity 63% 63% 56% 59%
Pressure 29.94 in1013.9 mb 29.94 in1013.9 mb 29.93 in1013.5 mb -
Hour Temp Dew Point Humidity Winds Wind Gusts Pressure Precip Precip Rate Daily Precip Total
03:30 AM 72.3°F22.4°C 59.0°F15.0°C 63% 7.6 mph WSW12.2 kmh WSW 9.6 mph15.4 kmh 29.94 in1013.9 mb 0.00 in0.0 mm 0.00 in0.0 mm 0.00 in0.0 mm
03:25 AM 73.0°F22.8°C 59.2°F15.1°C 62% 1.3 mph SW2.1 kmh SW 12.8 mph20.6 kmh 29.94 in1013.9 mb 0.00 in0.0 mm 0.00 in0.0 mm 0.00 in0.0 mm
03:20 AM 73.6°F23.1°C 59.3°F15.2°C 61% 7.6 mph SW12.2 kmh SW 17.2 mph27.7 kmh 29.94 in1013.9 mb 0.00 in0.0 mm 0.00 in0.0 mm 0.00 in0.0 mm
03:15 AM 73.9°F23.3°C 59.6°F15.3°C 61% 9.2 mph SW14.8 kmh SW 17.4 mph28.0 kmh 29.94 in1013.9 mb 0.00 in0.0 mm 0.00 in0.0 mm 0.00 in0.0 mm
03:10 AM 73.9°F23.3°C 59.2°F15.1°C 60% 15.2 mph SSW24.5 kmh SSW 17.4 mph28.0 kmh 29.94 in1013.9 mb 0.00 in0.0 mm 0.00 in0.0 mm 0.00 in0.0 mm
03:00 AM 73.4°F23.0°C 58.6°F14.8°C 60% 10.5 mph SW16.9 kmh SW 13.0 mph20.9 kmh 29.94 in1013.9 mb 0.00 in0.0 mm 0.00 in0.0 mm 0.00 in0.0 mm
02:55 AM 73.2°F22.9°C 58.5°F14.7°C 60% 4.9 mph SW7.9 kmh SW 9.8 mph15.8 kmh 29.94 in1013.9 mb 0.00 in0.0 mm 0.00 in0.0 mm 0.00 in0.0 mm
02:50 AM 73.0°F22.8°C 58.7°F14.8°C 61% 6.0 mph SSW9.7 kmh SSW 9.8 mph15.8 kmh 29.94 in1013.9 mb 0.00 in0.0 mm 0.00 in0.0 mm 0.00 in0.0 mm
02:45 AM 72.7°F22.6°C 58.4°F14.7°C 61% 4.7 mph SW7.6 kmh SW 6.5 mph10.5 kmh 29.94 in1013.9 mb 0.00 in0.0 mm 0.00 in0.0 mm 0.00 in0.0 mm
02:40 AM 73.0°F22.8°C 58.3°F14.6°C 60% 2.0 mph SW3.2 kmh SW 9.2 mph14.8 kmh 29.94 in1013.9 mb 0.00 in0.0 mm 0.00 in0.0 mm 0.00 in0.0 mm
02:35 AM 73.4°F23.0°C 58.1°F14.5°C 59% 4.5 mph SW7.2 kmh SW 11.0 mph17.7 kmh 29.94 in1013.9 mb 0.00 in0.0 mm 0.00 in0.0 mm 0.00 in0.0 mm
02:30 AM 74.1°F23.4°C 58.4°F14.7°C 58% 2.5 mph SW4.0 kmh SW 15.9 mph25.6 kmh 29.94 in1013.9 mb 0.00 in0.0 mm 0.00 in0.0 mm 0.00 in0.0 mm
02:25 AM 74.3°F23.5°C 58.5°F14.7°C 58% 9.6 mph SSW15.4 kmh SSW 15.9 mph25.6 kmh 29.94 in1013.9 mb 0.00 in0.0 mm 0.00 in0.0 mm 0.00 in0.0 mm
02:20 AM 74.5°F23.6°C 58.7°F14.8°C 58% 9.8 mph SSW15.8 kmh SSW 15.4 mph24.8 kmh 29.94 in1013.9 mb 0.00 in0.0 mm 0.00 in0.0 mm 0.00 in0.0 mm
02:15 AM 74.5°F23.6°C 58.7°F14.8°C 58% 12.3 mph SSW19.8 kmh SSW 15.4 mph24.8 kmh 29.94 in1013.9 mb 0.00 in0.0 mm 0.00 in0.0 mm 0.00 in0.0 mm
02:00 AM 74.8°F23.8°C 58.6°F14.8°C 57% 17.0 mph SSW27.4 kmh SSW 20.6 mph33.2 kmh 29.94 in1013.9 mb 0.00 in0.0 mm 0.00 in0.0 mm 0.00 in0.0 mm
01:55 AM 74.3°F23.5°C 58.5°F14.7°C 58% 14.8 mph SSW23.8 kmh SSW 17.4 mph28.0 kmh 29.94 in1013.9 mb 0.00 in0.0 mm 0.00 in0.0 mm 0.00 in0.0 mm
01:50 AM 74.5°F23.6°C 58.2°F14.6°C 57% 14.1 mph SSW22.7 kmh SSW 19.2 mph30.9 kmh 29.94 in1013.9 mb 0.00 in0.0 mm 0.00 in0.0 mm 0.00 in0.0 mm
01:45 AM 75.0°F23.9°C 58.7°F14.8°C 57% 14.3 mph SSW23.0 kmh SSW 19.2 mph30.9 kmh 29.94 in1013.9 mb 0.00 in0.0 mm 0.00 in0.0 mm 0.00 in0.0 mm
01:40 AM 75.0°F23.9°C 58.2°F14.6°C 56% 18.3 mph SSW29.5 kmh SSW 18.8 mph30.3 kmh 29.94 in1013.9 mb 0.00 in0.0 mm 0.00 in0.0 mm 0.00 in0.0 mm
01:35 AM 74.7°F23.7°C 58.4°F14.7°C 57% 14.8 mph SW23.8 kmh SW 18.6 mph29.9 kmh 29.94 in1013.9 mb 0.00 in0.0 mm 0.00 in0.0 mm 0.00 in0.0 mm
01:30 AM 74.3°F23.5°C 58.5°F14.7°C 58% 14.1 mph SW22.7 kmh SW 18.6 mph29.9 kmh 29.93 in1013.5 mb 0.00 in0.0 mm 0.00 in0.0 mm 0.00 in0.0 mm
01:25 AM 74.3°F23.5°C 58.5°F14.7°C 58% 15.7 mph SW25.3 kmh SW 20.8 mph33.5 kmh 29.93 in1013.5 mb 0.00 in0.0 mm 0.00 in0.0 mm 0.00 in0.0 mm
01:20 AM 74.5°F23.6°C 58.7°F14.8°C 58% 17.7 mph SSW28.5 kmh SSW 20.8 mph33.5 kmh 29.94 in1013.9 mb 0.00 in0.0 mm 0.00 in0.0 mm 0.00 in0.0 mm
01:15 AM 74.7°F23.7°C 58.9°F14.9°C 58% 10.7 mph SSW17.2 kmh SSW 21.7 mph34.9 kmh 29.94 in1013.9 mb 0.00 in0.0 mm 0.00 in0.0 mm 0.00 in0.0 mm
01:10 AM 74.8°F23.8°C 58.6°F14.8°C 57% 17.0 mph SSW27.4 kmh SSW 21.7 mph34.9 kmh 29.94 in1013.9 mb 0.00 in0.0 mm 0.00 in0.0 mm 0.00 in0.0 mm
01:05 AM 74.8°F23.8°C 59.1°F15.1°C 58% 12.8 mph SSW20.6 kmh SSW 14.3 mph23.0 kmh 29.94 in1013.9 mb 0.00 in0.0 mm 0.00 in0.0 mm 0.00 in0.0 mm
01:00 AM 74.8°F23.8°C 59.1°F15.1°C 58% 14.3 mph SW23.0 kmh SW 17.9 mph28.8 kmh 29.94 in1013.9 mb 0.00 in0.0 mm 0.00 in0.0 mm 0.00 in0.0 mm
12:55 AM 74.8°F23.8°C 59.1°F15.1°C 58% 13.0 mph SW20.9 kmh SW 18.6 mph29.9 kmh 29.94 in1013.9 mb 0.00 in0.0 mm 0.00 in0.0 mm 0.00 in0.0 mm
12:50 AM 74.8°F23.8°C 59.1°F15.1°C 58% 13.0 mph SW20.9 kmh SW 18.6 mph29.9 kmh 29.94 in1013.9 mb 0.00 in0.0 mm 0.00 in0.0 mm 0.00 in0.0 mm
12:45 AM 74.5°F23.6°C 58.7°F14.8°C 58% 13.0 mph SW20.9 kmh SW 17.2 mph27.7 kmh 29.94 in1013.9 mb 0.00 in0.0 mm 0.00 in0.0 mm 0.00 in0.0 mm
12:40 AM 74.7°F23.7°C 58.9°F14.9°C 58% 13.6 mph SW21.9 kmh SW 16.8 mph27.0 kmh 29.94 in1013.9 mb 0.00 in0.0 mm 0.00 in0.0 mm 0.00 in0.0 mm